Time;durP1;ratioP1;P1;durP2;ratioP2;P2;SDS_P1;SDS_P2;PMS_P1;PMS_P2;Temp;Humidity;BMP_temperature;BMP_pressure;BME280_temperature;BME280_humidity;BME280_pressure;Samples;Min_cycle;Max_cycle;Signal;HPM_P1;HPM_P2
2021/12/20 00:02:55;;;;;;;;;;;;;;;19.21;31.29;96230.53;10455586;28;1952;-41
2021/12/20 00:07:56;;;;;;;;;;;;;;;19.18;31.39;96221.34;10438624;28;1969;-39
2021/12/20 00:12:56;;;;;;;;;;;;;;;19.12;31.38;96211.84;10431958;28;1870;-43
2021/12/20 00:17:57;;;;;;;;;;;;;;;19.11;31.25;96209.44;10439951;28;1914;-41
2021/12/20 00:22:57;;;;;;;;;;;;;;;19.06;31.30;96215.44;10433348;28;2089;-40
2021/12/20 00:27:57;;;;;;;;;;;;;;;18.98;31.37;96210.66;10441875;28;1851;-38
2021/12/20 00:32:58;;;;;;;;;;;;;;;18.99;31.35;96217.50;10437174;28;1854;-40
2021/12/20 00:43:17;;;;;;;;;;;;;;;18.96;31.16;96198.84;10433010;28;1938;-42
2021/12/20 00:48:18;;;;;;;;;;;;;;;18.93;31.12;96194.88;10420312;28;1989;-40
2021/12/20 00:53:18;;;;;;;;;;;;;;;18.89;31.32;96203.50;10447952;28;2170;-39
2021/12/20 00:58:19;;;;;;;;;;;;;;;18.84;31.28;96206.88;10433221;28;1981;-40
2021/12/20 01:03:19;;;;;;;;;;;;;;;18.83;31.33;96207.94;10434456;28;1929;-41
2021/12/20 01:08:20;;;;;;;;;;;;;;;18.76;31.25;96201.28;10431000;28;1766;-39
2021/12/20 01:13:23;;;;;;;;;;;;;;;18.74;31.32;96204.19;10430321;28;1809;-42
2021/12/20 01:18:23;;;;;;;;;;;;;;;18.74;31.30;96204.19;10433780;28;1989;-42
2021/12/20 01:23:24;;;;;;;;;;;;;;;18.72;31.26;96206.25;10434230;28;1823;-42
2021/12/20 01:28:24;;;;;;;;;;;;;;;18.70;31.22;96200.47;10437476;28;1865;-42
2021/12/20 01:33:24;;;;;;;;;;;;;;;18.65;31.41;96198.59;10431956;28;1873;-41
2021/12/20 01:38:25;;;;;;;;;;;;;;;18.66;31.29;96192.31;10423515;28;1906;-41
2021/12/20 01:43:25;;;;;;;;;;;;;;;18.67;31.16;96190.44;10436258;28;1861;-41
2021/12/20 01:48:26;;;;;;;;;;;;;;;18.60;31.18;96198.56;10447804;28;1945;-44
2021/12/20 01:53:26;;;;;;;;;;;;;;;18.61;31.15;96194.09;10449307;28;1718;-39
2021/12/20 01:58:27;;;;;;;;;;;;;;;18.56;31.20;96196.69;10462488;23;2075;-50
2021/12/20 02:03:28;;;;;;;;;;;;;;;18.56;30.98;96194.06;10411564;28;1905;-49
2021/12/20 02:08:29;;;;;;;;;;;;;;;18.52;31.05;96190.34;10402500;28;1903;-52
2021/12/20 02:13:29;;;;;;;;;;;;;;;18.46;31.32;96180.84;10414116;28;1839;-49
2021/12/20 02:18:30;;;;;;;;;;;;;;;18.45;31.36;96189.75;10415088;28;1918;-49
2021/12/20 02:23:30;;;;;;;;;;;;;;;18.44;31.17;96194.19;10404885;28;1999;-48
2021/12/20 02:28:36;;;;;;;;;;;;;;;18.42;31.20;96184.97;10425707;28;2033;-50
2021/12/20 02:38:56;;;;;;;;;;;;;;;18.35;31.27;96187.81;10410151;28;1968;-47
2021/12/20 02:44:03;;;;;;;;;;;;;;;18.35;31.18;96169.44;10408699;28;1847;-54
2021/12/20 02:49:03;;;;;;;;;;;;;;;18.34;31.33;96174.94;10418824;28;1829;-50
2021/12/20 02:54:05;;;;;;;;;;;;;;;18.32;31.24;96182.28;10416903;28;1831;-52
2021/12/20 02:59:05;;;;;;;;;;;;;;;18.27;31.29;96175.13;10415659;28;1969;-46
2021/12/20 03:04:06;;;;;;;;;;;;;;;18.27;31.24;96175.13;10413599;28;1783;-52
2021/12/20 03:09:08;;;;;;;;;;;;;;;18.24;31.27;96180.88;10423024;28;1827;-48
2021/12/20 03:14:15;;;;;;;;;;;;;;;18.24;31.20;96170.38;10428333;28;1819;-49
2021/12/20 03:19:16;;;;;;;;;;;;;;;18.21;31.29;96170.88;10407286;28;1902;-49
2021/12/20 03:24:19;;;;;;;;;;;;;;;18.20;31.12;96186.84;10414356;28;2474;-47
2021/12/20 03:29:20;;;;;;;;;;;;;;;18.15;31.43;96168.44;10417245;28;1846;-53
2021/12/20 03:34:20;;;;;;;;;;;;;;;18.16;31.31;96180.50;10431345;28;1540;-47
2021/12/20 03:39:20;;;;;;;;;;;;;;;18.12;31.38;96187.28;10423458;28;1973;-50
2021/12/20 03:44:21;;;;;;;;;;;;;;;18.11;31.38;96183.09;10411865;28;1381;-49
2021/12/20 03:49:21;;;;;;;;;;;;;;;18.12;31.23;96176.81;10416031;28;1867;-51
2021/12/20 03:54:22;;;;;;;;;;;;;;;18.06;31.42;96183.03;10409284;28;1904;-48
2021/12/20 03:59:22;;;;;;;;;;;;;;;18.05;31.41;96173.59;10414681;28;1949;-46
2021/12/20 04:04:22;;;;;;;;;;;;;;;18.05;31.29;96174.41;10424367;28;1947;-48
2021/12/20 04:09:23;;;;;;;;;;;;;;;18.03;31.37;96173.06;10406192;28;1928;-47
2021/12/20 04:14:23;;;;;;;;;;;;;;;18.03;31.46;96176.47;10409756;28;1818;-49
2021/12/20 04:19:24;;;;;;;;;;;;;;;18.04;31.37;96172.00;10412135;28;1922;-50
2021/12/20 04:24:24;;;;;;;;;;;;;;;18.00;31.52;96181.41;10407723;28;1872;-49
2021/12/20 04:29:27;;;;;;;;;;;;;;;18.06;31.39;96175.16;10401642;28;1840;-52
2021/12/20 04:34:27;;;;;;;;;;;;;;;18.07;31.29;96189.88;10410742;28;1817;-50
2021/12/20 04:39:30;;;;;;;;;;;;;;;18.18;31.21;96194.19;10414238;28;1910;-49
2021/12/20 04:44:31;;;;;;;;;;;;;;;18.20;31.34;96203.41;10406441;28;1878;-48
2021/12/20 04:49:31;;;;;;;;;;;;;;;18.31;31.14;96199.03;10412041;28;1817;-52
2021/12/20 04:54:32;;;;;;;;;;;;;;;18.31;31.27;96201.66;10412995;28;1857;-49
2021/12/20 04:59:32;;;;;;;;;;;;;;;18.42;31.17;96205.97;10407663;28;1985;-47
2021/12/20 05:04:32;;;;;;;;;;;;;;;18.52;31.07;96208.72;10406609;28;1924;-50
2021/12/20 05:09:38;;;;;;;;;;;;;;;18.57;31.08;96200.88;10413109;28;1893;-46
2021/12/20 05:14:40;;;;;;;;;;;;;;;18.63;31.09;96211.19;10407880;28;1903;-48
2021/12/20 05:19:42;;;;;;;;;;;;;;;18.62;31.06;96217.50;10408158;28;1918;-47
2021/12/20 05:24:42;;;;;;;;;;;;;;;18.75;30.94;96221.53;10410376;28;1760;-49
2021/12/20 05:29:42;;;;;;;;;;;;;;;18.79;30.86;96229.69;10400561;28;1916;-49
2021/12/20 05:34:43;;;;;;;;;;;;;;;18.78;30.94;96220.22;10413135;28;1834;-51
2021/12/20 05:39:44;;;;;;;;;;;;;;;18.85;30.90;96221.63;10405344;28;1918;-52
2021/12/20 05:44:44;;;;;;;;;;;;;;;18.88;30.83;96222.94;10401439;28;1858;-48
2021/12/20 05:49:45;;;;;;;;;;;;;;;18.92;30.83;96227.44;10415301;28;1806;-52
2021/12/20 05:54:45;;;;;;;;;;;;;;;18.95;30.86;96226.16;10402163;28;1838;-50
2021/12/20 05:59:46;;;;;;;;;;;;;;;19.00;30.80;96228.81;10404251;28;1961;-48
2021/12/20 06:04:50;;;;;;;;;;;;;;;18.99;30.90;96235.09;10403138;28;1803;-47
2021/12/20 06:09:51;;;;;;;;;;;;;;;19.02;30.85;96232.00;10399372;28;1818;-50
2021/12/20 06:14:51;;;;;;;;;;;;;;;19.04;30.83;96235.94;10394045;28;1817;-49
2021/12/20 06:19:52;;;;;;;;;;;;;;;19.07;30.83;96243.31;10408336;28;1910;-48
2021/12/20 06:24:52;;;;;;;;;;;;;;;19.09;30.89;96243.06;10417517;28;2176;-46
2021/12/20 06:29:52;;;;;;;;;;;;;;;19.13;30.78;96244.13;10409074;28;2015;-47
2021/12/20 06:34:53;;;;;;;;;;;;;;;19.17;30.70;96245.22;10424037;28;1853;-46
2021/12/20 06:39:54;;;;;;;;;;;;;;;19.19;30.69;96248.38;10417147;28;1910;-47
2021/12/20 06:44:54;;;;;;;;;;;;;;;19.22;30.67;96253.16;10407229;28;1861;-47
2021/12/20 06:49:54;;;;;;;;;;;;;;;19.22;30.52;96258.41;10419680;28;1858;-49
2021/12/20 06:54:55;;;;;;;;;;;;;;;19.25;30.65;96263.94;10405676;28;1932;-47
2021/12/20 06:59:56;;;;;;;;;;;;;;;19.28;30.63;96263.44;10421723;28;1827;-46
2021/12/20 07:04:57;;;;;;;;;;;;;;;19.31;30.44;96257.66;10408205;28;1838;-48
2021/12/20 07:09:57;;;;;;;;;;;;;;;19.29;30.66;96269.47;10419582;28;1812;-46
2021/12/20 07:14:58;;;;;;;;;;;;;;;19.31;30.63;96265.56;10403120;28;1977;-46
2021/12/20 07:19:58;;;;;;;;;;;;;;;19.33;30.84;96266.13;10408611;28;1846;-48
2021/12/20 07:25:00;;;;;;;;;;;;;;;19.37;30.54;96269.06;10403607;28;1916;-49
2021/12/20 07:30:00;;;;;;;;;;;;;;;19.38;30.58;96273.25;10395284;28;1844;-50
2021/12/20 07:35:00;;;;;;;;;;;;;;;19.37;30.48;96272.47;10411220;28;1901;-51
2021/12/20 07:40:01;;;;;;;;;;;;;;;19.40;30.65;96277.22;10407328;28;1921;-52
2021/12/20 07:45:01;;;;;;;;;;;;;;;19.41;30.81;96281.44;10405989;28;1861;-50
2021/12/20 07:50:02;;;;;;;;;;;;;;;19.44;30.78;96288.03;10405550;28;1885;-49
2021/12/20 07:55:03;;;;;;;;;;;;;;;19.43;30.78;96284.59;10399139;28;1964;-47
2021/12/20 08:00:04;;;;;;;;;;;;;;;19.46;30.73;96291.19;10414946;28;1851;-51
2021/12/20 08:05:05;;;;;;;;;;;;;;;19.45;30.84;96292.25;10407636;28;1794;-49
2021/12/20 08:10:06;;;;;;;;;;;;;;;19.47;30.76;96283.03;10410957;28;1859;-48
2021/12/20 08:15:06;;;;;;;;;;;;;;;19.43;30.81;96284.59;10402954;28;2104;-46
2021/12/20 08:20:07;;;;;;;;;;;;;;;19.48;30.65;96292.53;10411909;28;1879;-48
2021/12/20 08:25:08;;;;;;;;;;;;;;;19.49;30.63;96291.47;10399826;28;1886;-46
2021/12/20 08:30:10;;;;;;;;;;;;;;;19.52;30.54;96292.81;10407486;28;1945;-47
2021/12/20 08:35:11;;;;;;;;;;;;;;;19.51;30.57;96299.13;10394201;28;1977;-47
2021/12/20 08:40:12;;;;;;;;;;;;;;;19.53;30.68;96296.22;10402807;28;1853;-48
2021/12/20 08:45:13;;;;;;;;;;;;;;;19.52;30.71;96295.44;10405487;28;1824;-45
2021/12/20 08:50:14;;;;;;;;;;;;;;;19.56;30.88;96307.03;10398976;28;1826;-48
2021/12/20 08:55:15;;;;;;;;;;;;;;;19.58;30.96;96304.16;10409266;28;1906;-47
2021/12/20 09:00:19;;;;;;;;;;;;;;;19.58;30.95;96309.44;10407921;28;1869;-46
2021/12/20 09:05:19;;;;;;;;;;;;;;;19.59;30.78;96306.53;10400954;28;1841;-48
2021/12/20 09:10:20;;;;;;;;;;;;;;;19.61;30.92;96311.53;10396014;28;1786;-47
2021/12/20 09:15:20;;;;;;;;;;;;;;;19.63;30.84;96314.69;10393806;28;1975;-48
2021/12/20 09:20:21;;;;;;;;;;;;;;;19.63;30.84;96307.63;10403109;28;1891;-49
2021/12/20 09:25:22;;;;;;;;;;;;;;;19.65;30.72;96318.66;10400749;28;1902;-46
2021/12/20 09:30:25;;;;;;;;;;;;;;;19.66;30.65;96322.88;10410096;28;1981;-46
2021/12/20 09:35:25;;;;;;;;;;;;;;;19.63;30.57;96317.34;10414485;28;1942;-49
2021/12/20 09:40:34;;;;;;;;;;;;;;;19.66;30.61;96311.56;10409903;28;1863;-50
2021/12/20 09:45:34;;;;;;;;;;;;;;;19.69;30.58;96318.94;10378190;28;1901;-51
2021/12/20 09:50:35;;;;;;;;;;;;;;;19.65;30.66;96316.03;10403819;28;1906;-48
2021/12/20 09:55:35;;;;;;;;;;;;;;;19.69;30.45;96314.47;10403077;28;1918;-48
2021/12/20 10:00:36;;;;;;;;;;;;;;;19.68;30.57;96310.25;10394143;28;1933;-47
2021/12/20 10:05:36;;;;;;;;;;;;;;;19.68;30.53;96304.22;10392593;28;1944;-51
2021/12/20 10:10:40;;;;;;;;;;;;;;;19.71;30.51;96301.88;10395216;28;1950;-51
2021/12/20 10:15:40;;;;;;;;;;;;;;;19.72;30.63;96310.56;10386113;28;1993;-49
2021/12/20 10:20:40;;;;;;;;;;;;;;;19.73;30.71;96304.25;10400522;28;1870;-49
2021/12/20 10:25:42;;;;;;;;;;;;;;;19.75;30.57;96316.09;10399387;28;1972;-48
2021/12/20 10:30:43;;;;;;;;;;;;;;;19.75;30.61;96305.56;10398752;28;1844;-45
2021/12/20 10:35:46;;;;;;;;;;;;;;;19.77;30.46;96298.22;10402163;28;1906;-52
2021/12/20 10:41:06;;;;;;;;;;;;;;;19.78;30.57;96299.03;10413196;28;1818;-51
2021/12/20 10:46:10;;;;;;;;;;;;;;;19.81;30.38;96299.28;10385629;28;1917;-49
2021/12/20 10:51:18;;;;;;;;;;;;;;;19.78;30.51;96296.38;10401247;28;1991;-50
2021/12/20 10:56:18;;;;;;;;;;;;;;;19.80;30.57;96302.19;10399021;28;1919;-50
2021/12/20 11:12:15;;;;;;;;;;;;;;;19.85;30.45;96294.31;10411336;28;1835;-46
2021/12/20 11:17:16;;;;;;;;;;;;;;;19.86;30.46;96296.69;10412720;28;1913;-51
2021/12/20 11:22:22;;;;;;;;;;;;;;;19.85;30.66;96291.69;10403102;28;1806;-48
2021/12/20 11:27:29;;;;;;;;;;;;;;;19.87;30.39;96292.22;10405992;28;1834;-48
2021/12/20 11:32:30;;;;;;;;;;;;;;;19.87;30.58;96292.22;10410377;28;1916;-48
2021/12/20 11:37:30;;;;;;;;;;;;;;;19.90;30.58;96296.97;10404865;28;1913;-49
2021/12/20 11:42:30;;;;;;;;;;;;;;;19.91;30.52;96285.38;10412903;28;1871;-48
2021/12/20 11:47:32;;;;;;;;;;;;;;;19.91;30.39;96296.72;10409020;28;1772;-50
2021/12/20 11:52:33;;;;;;;;;;;;;;;19.88;30.38;96278.03;10413246;28;1836;-47
2021/12/20 11:57:34;;;;;;;;;;;;;;;19.91;30.51;96282.75;10411187;28;2008;-48
2021/12/20 12:02:42;;;;;;;;;;;;;;;19.90;30.58;96278.56;10417244;28;1936;-49
2021/12/20 12:07:42;;;;;;;;;;;;;;;19.94;30.46;96275.16;10411535;28;1861;-46
2021/12/20 12:12:44;;;;;;;;;;;;;;;19.92;30.58;96266.75;10422706;23;3792;-58
2021/12/20 12:18:14;;;;;;;;;;;;;;;19.99;30.36;96266.50;10405645;28;1981;-55
2021/12/20 12:23:14;;;;;;;;;;;;;;;20.01;30.32;96262.53;10405864;28;1831;-54
2021/12/20 12:28:15;;;;;;;;;;;;;;;19.98;30.48;96259.66;10410504;28;1855;-57
2021/12/20 12:33:16;;;;;;;;;;;;;;;20.04;30.45;96266.50;10418591;28;1885;-54
2021/12/20 12:38:22;;;;;;;;;;;;;;;20.04;30.48;96264.69;10409278;28;1909;-55
2021/12/20 12:43:43;;;;;;;;;;;;;;;20.04;30.56;96255.97;10406933;28;1970;-58
2021/12/20 12:48:49;;;;;;;;;;;;;;;20.05;30.62;96257.59;10410509;28;1858;-58
2021/12/20 12:53:51;;;;;;;;;;;;;;;20.10;30.47;96254.94;10407706;28;1799;-56
2021/12/20 12:59:10;;;;;;;;;;;;;;;20.07;30.45;96253.63;10407221;28;1914;-56
2021/12/20 13:04:11;;;;;;;;;;;;;;;20.09;30.47;96264.69;10410534;28;2168;-57
2021/12/20 13:09:11;;;;;;;;;;;;;;;20.17;30.26;96266.03;10411503;28;1861;-52
2021/12/20 13:14:18;;;;;;;;;;;;;;;20.14;30.45;96266.53;10404686;28;1946;-52
2021/12/20 13:19:32;;;;;;;;;;;;;;;20.14;30.40;96258.66;10404962;28;1977;-57
2021/12/20 13:24:33;;;;;;;;;;;;;;;20.11;30.48;96252.06;10402993;28;1850;-56
2021/12/20 13:29:33;;;;;;;;;;;;;;;20.12;30.50;96258.13;10412120;28;1891;-52
2021/12/20 13:34:34;;;;;;;;;;;;;;;20.14;30.43;96266.53;10412259;28;2248;-56
2021/12/20 13:39:35;;;;;;;;;;;;;;;20.13;30.48;96271.00;10417203;28;1912;-57
2021/12/20 13:44:36;;;;;;;;;;;;;;;20.14;30.35;96271.81;10403506;28;1837;-58
2021/12/20 13:49:36;;;;;;;;;;;;;;;20.14;30.41;96267.34;10414975;28;1783;-55
2021/12/20 13:54:46;;;;;;;;;;;;;;;20.13;30.36;96271.00;10401150;28;1794;-58
2021/12/20 14:00:05;;;;;;;;;;;;;;;20.13;30.51;96270.25;10404392;28;1973;-57
2021/12/20 14:05:24;;;;;;;;;;;;;;;20.11;30.58;96273.09;10405887;28;1748;-56
2021/12/20 14:10:28;;;;;;;;;;;;;;;20.16;30.72;96285.50;10390174;28;1810;-57
2021/12/20 14:15:39;;;;;;;;;;;;;;;20.14;30.66;96280.50;10379767;28;1984;-54
2021/12/20 14:20:39;;;;;;;;;;;;;;;20.16;30.69;96291.56;10392084;28;1883;-55
2021/12/20 14:25:41;;;;;;;;;;;;;;;20.17;30.51;96287.88;10399777;28;1826;-57
2021/12/20 14:30:45;;;;;;;;;;;;;;;20.18;30.53;96286.03;10397344;28;1869;-53
2021/12/20 14:35:53;;;;;;;;;;;;;;;20.17;30.42;96293.13;10387178;28;1955;-57
2021/12/20 14:40:53;;;;;;;;;;;;;;;20.19;30.45;96298.16;10410923;28;1796;-58
2021/12/20 14:46:17;;;;;;;;;;;;;;;20.18;30.42;96291.31;10406439;28;1888;-58
2021/12/20 14:51:19;;;;;;;;;;;;;;;20.17;30.50;96292.38;10409321;28;1817;-58
2021/12/20 14:56:20;;;;;;;;;;;;;;;20.15;30.40;96300.50;10406095;28;1933;-56
2021/12/20 15:01:20;;;;;;;;;;;;;;;20.16;30.38;96296.03;10408135;28;2228;-55
2021/12/20 15:06:20;;;;;;;;;;;;;;;20.22;30.48;96295.03;10411293;28;1842;-57
2021/12/20 15:11:21;;;;;;;;;;;;;;;20.20;30.27;96291.88;10411106;28;1881;-56
2021/12/20 15:16:21;;;;;;;;;;;;;;;20.18;30.40;96299.19;10406942;28;1914;-56
2021/12/20 15:21:22;;;;;;;;;;;;;;;20.17;30.51;96285.22;10403504;28;1830;-58
2021/12/20 15:26:22;;;;;;;;;;;;;;;20.22;30.32;96292.41;10421093;28;1830;-58
2021/12/20 15:31:23;;;;;;;;;;;;;;;20.20;30.39;96282.13;10404580;28;1841;-55
2021/12/20 15:36:23;;;;;;;;;;;;;;;20.22;30.41;96295.03;10422066;28;1914;-53
2021/12/20 15:41:24;;;;;;;;;;;;;;;20.17;30.43;96287.88;10410849;28;2108;-56
2021/12/20 15:46:24;;;;;;;;;;;;;;;20.24;30.40;96292.94;10394711;28;1859;-58
2021/12/20 15:51:25;;;;;;;;;;;;;;;20.24;30.31;96291.09;10396476;28;1886;-57
2021/12/20 15:56:25;;;;;;;;;;;;;;;20.28;30.17;96288.72;10404115;28;1923;-58
2021/12/20 16:01:25;;;;;;;;;;;;;;;20.25;30.42;96291.91;10410723;28;1859;-58
2021/12/20 16:06:26;;;;;;;;;;;;;;;20.28;30.28;96299.25;10406829;28;1825;-57
2021/12/20 16:11:26;;;;;;;;;;;;;;;20.27;30.16;96295.06;10403951;28;1934;-56
2021/12/20 16:16:27;;;;;;;;;;;;;;;20.25;30.22;96294.53;10410026;28;2036;-54
2021/12/20 16:21:27;;;;;;;;;;;;;;;20.31;30.34;96298.75;10408918;28;2147;-57
2021/12/20 16:26:28;;;;;;;;;;;;;;;20.38;30.69;96301.16;10414635;28;1463;-59
2021/12/20 16:31:28;;;;;;;;;;;;;;;20.45;30.88;96294.59;10408906;28;1852;-57
2021/12/20 16:36:28;;;;;;;;;;;;;;;20.49;30.80;96295.66;10414131;28;1953;-56
2021/12/20 16:41:29;;;;;;;;;;;;;;;20.56;30.86;96301.47;10400655;28;1496;-57
2021/12/20 16:46:30;;;;;;;;;;;;;;;20.64;30.64;96302.78;10404268;28;1387;-54
2021/12/20 16:51:31;;;;;;;;;;;;;;;20.67;30.79;96313.59;10407791;28;1480;-54
2021/12/20 16:56:31;;;;;;;;;;;;;;;20.75;30.47;96304.41;10396032;28;2647;-55
2021/12/20 17:01:32;;;;;;;;;;;;;;;20.79;30.32;96303.59;10407703;28;1394;-55
2021/12/20 17:06:33;;;;;;;;;;;;;;;20.83;30.09;96312.59;10423812;28;1353;-55
2021/12/20 17:11:34;;;;;;;;;;;;;;;20.86;29.57;96309.44;10415933;28;1350;-57
2021/12/20 17:16:34;;;;;;;;;;;;;;;20.96;29.71;96298.09;10409779;28;1971;-58
2021/12/20 17:21:34;;;;;;;;;;;;;;;21.02;29.21;96305.78;10403437;28;1443;-57
2021/12/20 17:26:35;;;;;;;;;;;;;;;21.10;29.34;96301.03;10418043;28;1576;-57
2021/12/20 17:31:35;;;;;;;;;;;;;;;21.14;29.83;96308.16;10402364;28;1864;-56
2021/12/20 17:36:36;;;;;;;;;;;;;;;21.21;29.24;96292.88;10406976;28;2259;-56
2021/12/20 17:41:37;;;;;;;;;;;;;;;21.32;29.46;96301.56;10407142;28;1804;-58
2021/12/20 17:46:38;;;;;;;;;;;;;;;21.36;29.29;96310.53;10393706;28;1852;-56
2021/12/20 17:51:39;;;;;;;;;;;;;;;21.44;29.10;96304.72;10402274;28;1504;-57
2021/12/20 17:56:39;;;;;;;;;;;;;;;21.48;29.27;96306.56;10401412;28;1968;-55
2021/12/20 18:01:39;;;;;;;;;;;;;;;21.56;28.72;96310.50;10405877;28;1969;-56
2021/12/20 18:06:40;;;;;;;;;;;;;;;21.61;28.94;96307.88;10406683;28;1737;-58
2021/12/20 18:11:41;;;;;;;;;;;;;;;21.61;28.79;96308.66;10407482;28;1947;-56
2021/12/20 18:16:41;;;;;;;;;;;;;;;21.67;29.04;96320.00;10410666;28;1914;-58
2021/12/20 18:21:42;;;;;;;;;;;;;;;21.81;29.00;96318.38;10409253;28;1962;-56
2021/12/20 18:26:42;;;;;;;;;;;;;;;21.85;29.04;96320.25;10406679;28;1436;-58
2021/12/20 18:31:43;;;;;;;;;;;;;;;21.85;28.96;96322.09;10394030;28;1914;-55
2021/12/20 18:36:44;;;;;;;;;;;;;;;21.88;29.14;96322.34;10417941;23;2144;-48
2021/12/20 18:41:44;;;;;;;;;;;;;;;21.88;28.72;96318.94;10408181;28;1945;-52
2021/12/20 18:46:50;;;;;;;;;;;;;;;21.91;28.65;96321.03;10402866;28;1431;-47
2021/12/20 18:51:52;;;;;;;;;;;;;;;21.93;28.29;96321.53;10371138;28;1944;-49
2021/12/20 18:56:53;;;;;;;;;;;;;;;21.96;28.83;96317.59;10362952;28;1978;-49
2021/12/20 19:01:53;;;;;;;;;;;;;;;21.95;29.29;96323.94;10380031;28;2127;-46
2021/12/20 19:06:54;;;;;;;;;;;;;;;21.98;28.98;96321.53;10369779;28;1820;-46
2021/12/20 19:11:57;;;;;;;;;;;;;;;21.99;29.08;96314.41;10373846;28;1174;-48
2021/12/20 19:16:58;;;;;;;;;;;;;;;22.02;28.67;96322.59;10370296;28;1911;-50
2021/12/20 19:21:59;;;;;;;;;;;;;;;22.04;28.85;96319.66;10374965;28;1330;-45
2021/12/20 19:26:59;;;;;;;;;;;;;;;22.05;28.47;96316.75;10378254;28;1412;-49
2021/12/20 19:32:00;;;;;;;;;;;;;;;22.03;29.15;96310.94;10382602;28;1703;-48
2021/12/20 19:37:02;;;;;;;;;;;;;;;22.08;29.02;96324.16;10387173;28;2019;-46
2021/12/20 19:42:05;;;;;;;;;;;;;;;22.06;28.59;96318.34;10367023;28;2288;-46
2021/12/20 19:47:06;;;;;;;;;;;;;;;22.09;28.79;96315.16;10373893;28;1359;-49
2021/12/20 19:52:07;;;;;;;;;;;;;;;22.11;28.99;96318.34;10363771;28;1472;-49
2021/12/20 19:57:07;;;;;;;;;;;;;;;22.12;29.02;96317.28;10363850;28;1964;-47
2021/12/20 20:02:08;;;;;;;;;;;;;;;22.14;28.98;96320.44;10379703;28;1051;-45
2021/12/20 20:07:11;;;;;;;;;;;;;;;22.12;28.95;96317.28;10359046;28;1783;-48
2021/12/20 20:12:12;;;;;;;;;;;;;;;22.11;29.26;96317.53;10369345;28;1316;-48
2021/12/20 20:17:13;;;;;;;;;;;;;;;22.09;29.44;96314.38;10372041;28;1943;-53
2021/12/20 20:22:13;;;;;;;;;;;;;;;22.06;29.45;96321.00;10367861;28;1358;-48
2021/12/20 20:27:14;;;;;;;;;;;;;;;22.07;29.23;96316.50;10371489;28;1328;-48
2021/12/20 20:32:14;;;;;;;;;;;;;;;22.04;29.51;96312.53;10362096;28;1816;-51
2021/12/20 20:37:15;;;;;;;;;;;;;;;22.03;29.51;96321.50;10359083;28;1973;-50
2021/12/20 20:42:15;;;;;;;;;;;;;;;21.98;29.59;96321.53;10358879;28;1890;-49
2021/12/20 20:47:16;;;;;;;;;;;;;;;21.97;29.35;96322.59;10359610;28;1804;-51
2021/12/20 20:52:16;;;;;;;;;;;;;;;21.93;29.33;96326.06;10359810;28;2002;-46
2021/12/20 20:57:17;;;;;;;;;;;;;;;21.91;29.20;96318.38;10359285;28;1930;-48
2021/12/20 21:02:18;;;;;;;;;;;;;;;21.89;29.37;96331.06;10361343;28;1852;-47
2021/12/20 21:07:20;;;;;;;;;;;;;;;21.85;29.33;96324.72;10354738;28;2123;-50
2021/12/20 21:12:20;;;;;;;;;;;;;;;21.85;29.32;96330.00;10345785;28;1897;-46
2021/12/20 21:17:21;;;;;;;;;;;;;;;21.82;29.05;96333.19;10355851;28;1910;-50
2021/12/20 21:22:21;;;;;;;;;;;;;;;21.80;28.94;96328.13;10360717;28;1863;-45
2021/12/20 21:27:22;;;;;;;;;;;;;;;21.78;29.07;96318.94;10364315;28;1791;-44
2021/12/20 21:32:22;;;;;;;;;;;;;;;21.80;28.87;96311.53;10339894;28;1892;-50
2021/12/20 21:37:22;;;;;;;;;;;;;;;21.77;28.74;96309.41;10366082;28;1963;-45
2021/12/20 21:42:23;;;;;;;;;;;;;;;21.72;29.09;96312.84;10364706;28;1914;-52
2021/12/20 21:47:24;;;;;;;;;;;;;;;21.71;28.92;96316.56;10361685;28;1769;-45
2021/12/20 21:52:24;;;;;;;;;;;;;;;21.68;29.07;96316.28;10358885;28;2212;-51
2021/12/20 21:57:25;;;;;;;;;;;;;;;21.66;29.05;96315.75;10359628;28;1914;-45
2021/12/20 22:02:25;;;;;;;;;;;;;;;21.62;29.34;96328.69;10362362;28;1871;-49
2021/12/20 22:07:25;;;;;;;;;;;;;;;21.61;29.06;96321.06;10363486;28;1879;-49
2021/12/20 22:12:26;;;;;;;;;;;;;;;21.55;29.17;96317.66;10363834;28;1880;-49
2021/12/20 22:17:26;;;;;;;;;;;;;;;21.53;29.03;96309.22;10358534;28;1906;-50
2021/12/20 22:22:27;;;;;;;;;;;;;;;21.53;28.93;96311.06;10362528;28;1920;-52
2021/12/20 22:27:27;;;;;;;;;;;;;;;21.46;29.07;96315.78;10362371;28;1764;-49
2021/12/20 22:32:28;;;;;;;;;;;;;;;21.43;29.12;96305.78;10351601;28;1858;-48
2021/12/20 22:37:28;;;;;;;;;;;;;;;21.38;29.36;96311.06;10358597;28;2009;-52
2021/12/20 22:42:28;;;;;;;;;;;;;;;21.36;29.23;96313.97;10373529;28;1883;-49
2021/12/20 22:47:29;;;;;;;;;;;;;;;21.34;29.05;96307.38;10360944;28;1855;-51
2021/12/20 22:52:30;;;;;;;;;;;;;;;21.30;29.17;96311.59;10359523;28;1903;-46
2021/12/20 22:57:33;;;;;;;;;;;;;;;21.24;29.14;96308.16;10365921;28;1922;-46
2021/12/20 23:02:33;;;;;;;;;;;;;;;21.23;28.88;96311.84;10383160;28;1780;-47
2021/12/20 23:07:34;;;;;;;;;;;;;;;21.17;29.18;96297.09;10370766;28;1949;-50
2021/12/20 23:13:17;;;;;;;;;;;;;;;21.12;29.04;96294.47;10358565;28;1839;-47
2021/12/20 23:17:58;;;;;;;;;;;;;;;21.11;29.19;96300.78;10363772;28;1914;-45
2021/12/20 23:23:01;;;;;;;;;;;;;;;21.09;29.14;96297.63;10366574;28;1935;-47
2021/12/20 23:28:04;;;;;;;;;;;;;;;21.03;29.00;96296.84;10370569;28;1833;-47
2021/12/20 23:33:04;;;;;;;;;;;;;;;20.98;29.17;96288.06;10348086;28;1870;-54
2021/12/20 23:38:07;;;;;;;;;;;;;;;20.96;29.12;96283.06;10367451;28;1934;-50
2021/12/20 23:43:19;;;;;;;;;;;;;;;20.94;29.16;96284.38;10368142;28;1828;-47
2021/12/20 23:48:19;;;;;;;;;;;;;;;20.90;29.26;96281.50;10365352;28;1856;-51
2021/12/20 23:53:20;;;;;;;;;;;;;;;20.87;29.18;96278.59;10367511;28;1816;-47
2021/12/20 23:58:20;;;;;;;;;;;;;;;20.83;29.18;96275.72;10367616;28;1965;-48
